Time;durP1;ratioP1;P1;durP2;ratioP2;P2;SDS_P1;SDS_P2;PMS_P1;PMS_P2;Temp;Humidity;BMP_temperature;BMP_pressure;BME280_temperature;BME280_humidity;BME280_pressure;Samples;Min_cycle;Max_cycle;Signal;HPM_P1;HPM_P2
2021/12/19 00:09:01;;;;;;;;;;;5.30;99.90;;;;;;5052970;28;19941;-74
2021/12/19 00:11:27;;;;;;;;;;;5.30;99.90;;;;;;5053703;28;19908;-73
2021/12/19 00:13:52;;;;;;;;;;;5.30;99.90;;;;;;5053519;28;19904;-74
2021/12/19 00:16:18;;;;;;;;;;;5.30;99.90;;;;;;5053669;28;20355;-73
2021/12/19 00:18:47;;;;;;;;;;;5.30;99.90;;;;;;5053983;28;20323;-73
2021/12/19 00:21:17;;;;;;;;;;;5.40;99.90;;;;;;5052113;28;20308;-74
2021/12/19 00:23:44;;;;;;;;;;;5.30;99.90;;;;;;5057866;28;19908;-73
2021/12/19 00:26:10;;;;;;;;;;;5.40;99.90;;;;;;5068492;28;19999;-75
2021/12/19 00:28:36;;;;;;;;;;;5.40;99.90;;;;;;5069095;28;20386;-73
2021/12/19 00:31:02;;;;;;;;;;;5.40;99.90;;;;;;5052938;28;19904;-73
2021/12/19 00:33:27;;;;;;;;;;;5.30;99.90;;;;;;5053736;28;20350;-73
2021/12/19 00:35:53;;;;;;;;;;;5.30;99.90;;;;;;5051483;28;19905;-74
2021/12/19 00:38:19;;;;;;;;;;;5.30;99.90;;;;;;5054005;28;20295;-74
2021/12/19 00:40:44;;;;;;;;;;;5.20;99.90;;;;;;5053736;28;20481;-74
2021/12/19 00:43:22;;;;;;;;;;;5.20;99.90;;;;;;5052745;28;19908;-74
2021/12/19 00:45:49;;;;;;;;;;;5.20;99.90;;;;;;5053222;28;19913;-73
2021/12/19 00:48:15;;;;;;;;;;;5.10;99.90;;;;;;5051828;28;19908;-74
2021/12/19 00:50:40;;;;;;;;;;;5.10;99.90;;;;;;5053577;28;19904;-74
2021/12/19 00:53:06;;;;;;;;;;;5.10;99.90;;;;;;5052735;28;19905;-74
2021/12/19 00:55:32;;;;;;;;;;;5.10;99.90;;;;;;5053265;28;19905;-74
2021/12/19 00:57:57;;;;;;;;;;;5.00;99.90;;;;;;5052488;28;19905;-75
2021/12/19 01:00:25;;;;;;;;;;;4.90;99.90;;;;;;5053177;28;19951;-74
2021/12/19 01:02:53;;;;;;;;;;;4.90;99.90;;;;;;5053239;28;19908;-74
2021/12/19 01:05:19;;;;;;;;;;;4.90;99.90;;;;;;5053130;28;19951;-73
2021/12/19 01:07:45;;;;;;;;;;;4.90;99.90;;;;;;5053381;28;19915;-73
2021/12/19 01:10:10;;;;;;;;;;;4.90;99.90;;;;;;5061757;28;19913;-73
2021/12/19 01:12:38;;;;;;;;;;;4.80;99.90;;;;;;5063310;28;19988;-73
2021/12/19 01:15:09;;;;;;;;;;;4.70;99.90;;;;;;5063438;28;19912;-73
2021/12/19 01:17:35;;;;;;;;;;;4.70;99.90;;;;;;5059158;28;19909;-73
2021/12/19 01:20:01;;;;;;;;;;;4.70;99.90;;;;;;5052377;28;20369;-73
2021/12/19 01:22:26;;;;;;;;;;;4.60;99.90;;;;;;5052875;28;19904;-73
2021/12/19 01:24:52;;;;;;;;;;;4.60;99.90;;;;;;5052724;28;19911;-74
2021/12/19 01:27:17;;;;;;;;;;;4.60;99.90;;;;;;5052145;28;19919;-73
2021/12/19 01:29:43;;;;;;;;;;;4.60;99.90;;;;;;5052603;28;19991;-72
2021/12/19 01:32:08;;;;;;;;;;;4.60;99.90;;;;;;5051986;28;19905;-73
2021/12/19 01:34:34;;;;;;;;;;;4.50;99.90;;;;;;5052715;28;20027;-73
2021/12/19 01:36:59;;;;;;;;;;;4.40;99.90;;;;;;5052029;28;19905;-74
2021/12/19 01:39:25;;;;;;;;;;;4.30;99.90;;;;;;5052857;28;20263;-73
2021/12/19 01:41:52;;;;;;;;;;;4.30;99.90;;;;;;5052903;28;19909;-73
2021/12/19 01:44:18;;;;;;;;;;;4.20;99.90;;;;;;5051879;28;19905;-73
2021/12/19 01:46:46;;;;;;;;;;;4.20;99.90;;;;;;5052624;28;20413;-73
2021/12/19 01:49:12;;;;;;;;;;;4.10;99.90;;;;;;5051976;28;19912;-73
2021/12/19 01:51:38;;;;;;;;;;;4.10;99.90;;;;;;5052434;28;20375;-73
2021/12/19 01:54:04;;;;;;;;;;;4.00;99.90;;;;;;5051674;28;19905;-73
2021/12/19 01:56:30;;;;;;;;;;;3.90;99.90;;;;;;5052528;28;19953;-73
2021/12/19 01:58:56;;;;;;;;;;;3.80;99.90;;;;;;5052454;28;19912;-73
2021/12/19 02:01:22;;;;;;;;;;;3.70;99.90;;;;;;5052324;28;19904;-74
2021/12/19 02:03:47;;;;;;;;;;;3.60;99.90;;;;;;5052532;28;19905;-73
2021/12/19 02:06:13;;;;;;;;;;;3.50;99.90;;;;;;5051399;28;19938;-73
2021/12/19 02:08:40;;;;;;;;;;;3.40;99.90;;;;;;5051911;28;19924;-73
2021/12/19 02:11:05;;;;;;;;;;;3.30;99.90;;;;;;5052143;28;19908;-73
2021/12/19 02:13:31;;;;;;;;;;;3.30;99.90;;;;;;5052378;28;19912;-73
2021/12/19 02:15:57;;;;;;;;;;;3.20;99.90;;;;;;5051855;28;19905;-72
2021/12/19 02:18:22;;;;;;;;;;;3.10;99.90;;;;;;5052218;28;19905;-73
2021/12/19 02:20:56;;;;;;;;;;;3.00;99.90;;;;;;5052362;28;20325;-73
2021/12/19 02:23:24;;;;;;;;;;;3.00;99.90;;;;;;5051997;28;19916;-74
2021/12/19 02:25:49;;;;;;;;;;;2.90;99.90;;;;;;5052240;28;19948;-73
2021/12/19 02:28:15;;;;;;;;;;;2.80;99.90;;;;;;5051640;28;19915;-74
2021/12/19 02:30:41;;;;;;;;;;;2.70;99.90;;;;;;5052348;28;19904;-74
2021/12/19 02:33:10;;;;;;;;;;;2.70;99.90;;;;;;5051135;28;19909;-74
2021/12/19 02:35:36;;;;;;;;;;;2.70;99.90;;;;;;5052151;28;20270;-74
2021/12/19 02:48:09;;;;;;;;;;;2.60;99.90;;;;;;5056006;28;19904;-73
2021/12/19 02:48:50;;;;;;;;;;;2.50;99.90;;;;;;5055597;28;20064;-73
2021/12/19 02:51:16;;;;;;;;;;;2.60;99.90;;;;;;5055171;28;20014;-73
2021/12/19 02:53:43;;;;;;;;;;;2.60;99.90;;;;;;5055914;28;19928;-73
2021/12/19 02:56:10;;;;;;;;;;;2.60;99.90;;;;;;5054803;28;19988;-73
2021/12/19 02:58:36;;;;;;;;;;;2.50;99.90;;;;;;5055766;28;19955;-73
2021/12/19 03:01:04;;;;;;;;;;;2.40;99.90;;;;;;5055010;28;19948;-73
2021/12/19 03:03:29;;;;;;;;;;;2.40;99.90;;;;;;5055523;28;20413;-73
2021/12/19 03:05:56;;;;;;;;;;;2.50;99.90;;;;;;5055211;28;19920;-72
2021/12/19 03:08:21;;;;;;;;;;;2.50;99.90;;;;;;5069782;28;20500;-73
2021/12/19 03:18:31;;;;;;;;;;;2.60;99.90;;;;;;5055530;28;20031;-73
2021/12/19 03:20:57;;;;;;;;;;;2.60;99.90;;;;;;5055275;28;19999;-72
2021/12/19 03:23:23;;;;;;;;;;;2.60;99.90;;;;;;5054885;28;19911;-73
2021/12/19 03:25:48;;;;;;;;;;;2.60;99.90;;;;;;5055143;28;19912;-73
2021/12/19 03:28:14;;;;;;;;;;;2.60;99.90;;;;;;5054069;28;20307;-73
2021/12/19 03:30:41;;;;;;;;;;;2.60;99.90;;;;;;5055049;28;20374;-73
2021/12/19 03:33:06;;;;;;;;;;;2.50;99.90;;;;;;5054352;28;19959;-74
2021/12/19 03:35:32;;;;;;;;;;;2.50;99.90;;;;;;5054753;28;19908;-73
2021/12/19 03:38:00;;;;;;;;;;;2.60;99.90;;;;;;5054813;28;19959;-73
2021/12/19 03:40:35;;;;;;;;;;;2.60;99.90;;;;;;5054062;28;20340;-73
2021/12/19 03:43:03;;;;;;;;;;;2.60;99.90;;;;;;5054942;28;19905;-73
2021/12/19 03:45:29;;;;;;;;;;;2.70;99.90;;;;;;5054567;28;19951;-73
2021/12/19 03:47:55;;;;;;;;;;;2.80;99.90;;;;;;5054446;28;19909;-73
2021/12/19 03:50:23;;;;;;;;;;;2.90;99.90;;;;;;5053506;28;19912;-74
2021/12/19 03:52:52;;;;;;;;;;;2.90;99.90;;;;;;5054543;28;20378;-73
2021/12/19 03:55:18;;;;;;;;;;;2.90;99.90;;;;;;5053916;28;19979;-74
2021/12/19 03:57:44;;;;;;;;;;;2.90;99.90;;;;;;5054520;28;20355;-73
2021/12/19 04:00:11;;;;;;;;;;;2.80;99.90;;;;;;5053663;28;19935;-74
2021/12/19 04:02:37;;;;;;;;;;;2.80;99.90;;;;;;5054447;28;20366;-73
2021/12/19 04:05:02;;;;;;;;;;;2.90;99.90;;;;;;5054353;28;19905;-74
2021/12/19 04:07:28;;;;;;;;;;;3.00;99.90;;;;;;5052369;28;20347;-74
2021/12/19 04:09:54;;;;;;;;;;;3.10;99.90;;;;;;5054071;28;19924;-73
2021/12/19 04:12:23;;;;;;;;;;;3.20;99.90;;;;;;5053679;28;19962;-73
2021/12/19 04:14:48;;;;;;;;;;;3.20;99.90;;;;;;5054382;28;19905;-73
2021/12/19 04:17:14;;;;;;;;;;;3.20;99.90;;;;;;5053358;28;19951;-73
2021/12/19 04:19:39;;;;;;;;;;;3.20;99.90;;;;;;5054489;28;20343;-73
2021/12/19 04:22:05;;;;;;;;;;;3.30;99.90;;;;;;5052586;28;19911;-73
2021/12/19 04:24:31;;;;;;;;;;;3.40;99.90;;;;;;5053749;28;20011;-73
2021/12/19 04:26:57;;;;;;;;;;;3.40;99.90;;;;;;5053680;28;20256;-73
2021/12/19 04:29:24;;;;;;;;;;;3.40;99.90;;;;;;5053087;28;19904;-73
2021/12/19 04:31:50;;;;;;;;;;;3.50;99.90;;;;;;5052650;28;20279;-72
2021/12/19 04:34:17;;;;;;;;;;;3.60;99.90;;;;;;5052978;28;19935;-73
2021/12/19 04:36:45;;;;;;;;;;;3.60;99.90;;;;;;5053746;28;19912;-73
2021/12/19 04:55:37;;;;;;;;;;;3.80;99.90;;;;;;5043969;28;19904;-73
2021/12/19 04:58:15;;;;;;;;;;;3.70;99.90;;;;;;5053088;28;19967;-73
2021/12/19 05:01:13;;;;;;;;;;;3.60;99.90;;;;;;5053326;28;19905;-73
2021/12/19 05:03:43;;;;;;;;;;;3.60;99.90;;;;;;5051272;28;19908;-73
2021/12/19 05:06:32;;;;;;;;;;;3.70;99.90;;;;;;5052694;28;19917;-74
2021/12/19 05:14:30;;;;;;;;;;;3.70;99.90;;;;;;5052497;28;20350;-73
2021/12/19 05:17:02;;;;;;;;;;;3.70;99.90;;;;;;5053162;28;20046;-73
2021/12/19 05:19:31;;;;;;;;;;;3.70;99.90;;;;;;5052504;28;19944;-73
2021/12/19 05:22:01;;;;;;;;;;;3.70;99.90;;;;;;5052932;28;19905;-73
2021/12/19 05:27:02;;;;;;;;;;;3.60;99.90;;;;;;5052819;28;20425;-73
2021/12/19 05:29:27;;;;;;;;;;;3.70;99.90;;;;;;5052308;28;19904;-74
2021/12/19 05:31:53;;;;;;;;;;;3.70;99.90;;;;;;5053159;28;19996;-74
2021/12/19 05:34:19;;;;;;;;;;;3.70;99.90;;;;;;5051982;28;19905;-73
2021/12/19 05:45:13;;;;;;;;;;;3.80;99.90;;;;;;5052518;28;19954;-74
2021/12/19 05:47:49;;;;;;;;;;;3.90;99.90;;;;;;5052818;28;19963;-74
2021/12/19 05:50:16;;;;;;;;;;;3.90;99.90;;;;;;5052026;28;20295;-74
2021/12/19 05:52:42;;;;;;;;;;;4.00;99.90;;;;;;5052696;28;19912;-74
2021/12/19 05:55:07;;;;;;;;;;;4.00;99.90;;;;;;5052681;28;19905;-74
2021/12/19 05:57:33;;;;;;;;;;;4.10;99.90;;;;;;5052049;28;19975;-74
2021/12/19 05:59:59;;;;;;;;;;;4.00;99.90;;;;;;5052560;28;19911;-74
2021/12/19 06:02:25;;;;;;;;;;;4.10;99.90;;;;;;5052231;28;19909;-74
2021/12/19 06:04:51;;;;;;;;;;;4.10;99.90;;;;;;5052283;28;19905;-74
2021/12/19 06:07:16;;;;;;;;;;;4.20;99.90;;;;;;5051471;28;19913;-74
2021/12/19 06:09:42;;;;;;;;;;;4.20;99.90;;;;;;5050866;28;19916;-74
2021/12/19 06:12:08;;;;;;;;;;;4.20;99.90;;;;;;5052181;28;19905;-73
2021/12/19 06:14:34;;;;;;;;;;;4.20;99.90;;;;;;5054263;28;19900;-73
2021/12/19 06:17:01;;;;;;;;;;;4.20;99.90;;;;;;5056139;28;19904;-74
2021/12/19 06:19:27;;;;;;;;;;;4.20;99.90;;;;;;5055858;28;19905;-74
2021/12/19 06:21:52;;;;;;;;;;;4.20;99.90;;;;;;5056325;28;19909;-73
2021/12/19 06:24:18;;;;;;;;;;;4.20;99.90;;;;;;5055717;28;19905;-74
2021/12/19 06:26:43;;;;;;;;;;;4.30;99.90;;;;;;5056040;28;20011;-74
2021/12/19 06:29:09;;;;;;;;;;;4.30;99.90;;;;;;5056294;28;19959;-73
2021/12/19 06:31:35;;;;;;;;;;;4.40;99.90;;;;;;5055433;28;19968;-73
2021/12/19 06:34:00;;;;;;;;;;;4.30;99.90;;;;;;5056182;28;19998;-73
2021/12/19 06:36:26;;;;;;;;;;;4.40;99.90;;;;;;5055387;28;20267;-74
2021/12/19 06:38:52;;;;;;;;;;;4.40;99.90;;;;;;5056272;28;19909;-74
2021/12/19 06:41:18;;;;;;;;;;;4.40;99.90;;;;;;5055419;28;19912;-72
2021/12/19 06:43:44;;;;;;;;;;;4.40;99.90;;;;;;5055908;28;19905;-74
2021/12/19 06:46:09;;;;;;;;;;;4.40;99.90;;;;;;5055862;28;19952;-72
2021/12/19 06:48:35;;;;;;;;;;;4.40;99.90;;;;;;5055144;28;20449;-72
2021/12/19 06:51:00;;;;;;;;;;;4.50;99.90;;;;;;5055856;28;19912;-74
2021/12/19 06:53:26;;;;;;;;;;;4.50;99.90;;;;;;5055149;28;19905;-72
2021/12/19 06:55:52;;;;;;;;;;;4.50;99.90;;;;;;5055754;28;20436;-72
2021/12/19 06:58:17;;;;;;;;;;;4.50;99.90;;;;;;5055216;28;19905;-73
2021/12/19 07:00:43;;;;;;;;;;;4.50;99.90;;;;;;5055537;28;19905;-72
2021/12/19 07:03:11;;;;;;;;;;;4.50;99.90;;;;;;5055318;28;19941;-72
2021/12/19 07:05:37;;;;;;;;;;;4.60;99.90;;;;;;5070114;28;19901;-73
2021/12/19 07:08:02;;;;;;;;;;;4.50;99.90;;;;;;5055140;28;19928;-72
2021/12/19 07:10:28;;;;;;;;;;;4.60;99.90;;;;;;5055094;28;19926;-73
2021/12/19 07:12:53;;;;;;;;;;;4.60;99.90;;;;;;5065858;28;19969;-72
2021/12/19 07:15:19;;;;;;;;;;;4.60;99.90;;;;;;5066097;28;19912;-73
2021/12/19 07:17:45;;;;;;;;;;;4.60;99.90;;;;;;5055432;28;19943;-73
2021/12/19 07:20:11;;;;;;;;;;;4.60;99.90;;;;;;5055396;28;19905;-73
2021/12/19 07:22:37;;;;;;;;;;;4.60;99.90;;;;;;5054764;28;19931;-73
2021/12/19 07:25:03;;;;;;;;;;;4.60;99.90;;;;;;5054029;28;20344;-73
2021/12/19 07:27:29;;;;;;;;;;;4.60;99.90;;;;;;5054217;28;20268;-73
2021/12/19 07:29:56;;;;;;;;;;;4.60;99.90;;;;;;5055713;28;19904;-72
2021/12/19 07:32:22;;;;;;;;;;;4.70;99.90;;;;;;5054144;28;20348;-73
2021/12/19 07:34:49;;;;;;;;;;;4.60;99.90;;;;;;5054912;28;19904;-73
2021/12/19 07:37:15;;;;;;;;;;;4.60;99.90;;;;;;5054760;28;19931;-73
2021/12/19 07:39:52;;;;;;;;;;;4.70;99.90;;;;;;5054351;28;19904;-73
2021/12/19 07:42:18;;;;;;;;;;;4.70;99.90;;;;;;5055051;28;19941;-73
2021/12/19 07:44:43;;;;;;;;;;;4.70;99.90;;;;;;5054310;28;19948;-73
2021/12/19 07:47:10;;;;;;;;;;;4.70;99.90;;;;;;5054663;28;19916;-73
2021/12/19 07:49:35;;;;;;;;;;;4.70;99.90;;;;;;5053988;28;19909;-74
2021/12/19 07:52:01;;;;;;;;;;;4.70;99.90;;;;;;5054160;28;19913;-73
2021/12/19 07:54:27;;;;;;;;;;;4.70;99.90;;;;;;5053942;28;19991;-73
2021/12/19 07:56:52;;;;;;;;;;;4.70;99.90;;;;;;5054354;28;19905;-73
2021/12/19 07:59:18;;;;;;;;;;;4.70;99.90;;;;;;5054488;28;19905;-74
2021/12/19 08:01:44;;;;;;;;;;;4.70;99.90;;;;;;5053589;28;20382;-74
2021/12/19 08:04:10;;;;;;;;;;;4.70;99.90;;;;;;5054330;28;20342;-73
2021/12/19 08:06:36;;;;;;;;;;;4.70;99.90;;;;;;5053348;28;19927;-73
2021/12/19 08:09:08;;;;;;;;;;;4.60;99.90;;;;;;5053733;28;19924;-73
2021/12/19 08:11:40;;;;;;;;;;;4.60;99.90;;;;;;5053534;28;19909;-73
2021/12/19 08:14:10;;;;;;;;;;;4.60;99.90;;;;;;5068542;28;19908;-73
2021/12/19 08:16:36;;;;;;;;;;;4.60;99.90;;;;;;5053482;28;19905;-73
2021/12/19 08:19:02;;;;;;;;;;;4.60;99.90;;;;;;5054090;28;19911;-74
2021/12/19 08:21:28;;;;;;;;;;;4.60;99.90;;;;;;5053623;28;19951;-74
2021/12/19 08:23:58;;;;;;;;;;;4.60;99.90;;;;;;5053921;28;19908;-73
2021/12/19 08:26:24;;;;;;;;;;;4.50;99.90;;;;;;5051917;28;19919;-74
2021/12/19 08:28:49;;;;;;;;;;;4.60;99.90;;;;;;5053699;28;20379;-73
2021/12/19 08:31:15;;;;;;;;;;;4.50;99.90;;;;;;5052474;28;19979;-74
2021/12/19 08:33:41;;;;;;;;;;;4.50;99.90;;;;;;5053049;28;19952;-73
2021/12/19 08:36:07;;;;;;;;;;;4.50;99.90;;;;;;5053745;28;19912;-74
2021/12/19 08:38:33;;;;;;;;;;;4.50;99.90;;;;;;5052969;28;19995;-73
2021/12/19 08:40:59;;;;;;;;;;;4.50;99.90;;;;;;5053698;28;19951;-73
2021/12/19 08:43:24;;;;;;;;;;;4.50;99.90;;;;;;5053320;28;20007;-73
2021/12/19 08:45:50;;;;;;;;;;;4.50;99.90;;;;;;5052110;28;20378;-73
2021/12/19 08:48:18;;;;;;;;;;;4.40;99.90;;;;;;5053131;28;19911;-73
2021/12/19 08:50:44;;;;;;;;;;;4.40;99.90;;;;;;5052754;28;19908;-74
2021/12/19 08:53:10;;;;;;;;;;;4.40;99.90;;;;;;5053451;28;19905;-74
2021/12/19 08:55:35;;;;;;;;;;;4.40;99.90;;;;;;5068278;28;20262;-74
2021/12/19 08:58:01;;;;;;;;;;;4.40;99.90;;;;;;5053601;28;19947;-73
2021/12/19 09:00:27;;;;;;;;;;;4.40;99.90;;;;;;5052614;28;19951;-74
2021/12/19 09:02:55;;;;;;;;;;;4.50;99.90;;;;;;5053586;28;19939;-74
2021/12/19 09:05:21;;;;;;;;;;;4.50;99.90;;;;;;5053133;28;20344;-74
2021/12/19 09:07:47;;;;;;;;;;;4.40;99.90;;;;;;5052528;28;20062;-73
2021/12/19 09:10:13;;;;;;;;;;;4.40;99.90;;;;;;5053134;28;20433;-73
2021/12/19 09:12:38;;;;;;;;;;;4.40;99.90;;;;;;5067811;28;19949;-73
2021/12/19 09:15:05;;;;;;;;;;;4.40;99.90;;;;;;5052992;28;19905;-73
2021/12/19 09:17:30;;;;;;;;;;;4.40;99.90;;;;;;5052422;28;19905;-73
2021/12/19 09:19:56;;;;;;;;;;;4.40;99.90;;;;;;5053026;28;20351;-73
2021/12/19 09:22:22;;;;;;;;;;;4.40;99.90;;;;;;5053270;28;19950;-73
2021/12/19 09:24:48;;;;;;;;;;;4.40;99.90;;;;;;5052648;28;20062;-73
2021/12/19 09:27:13;;;;;;;;;;;4.40;99.90;;;;;;5051549;28;19920;-74
2021/12/19 09:29:39;;;;;;;;;;;4.40;99.90;;;;;;5052257;28;20366;-74
2021/12/19 09:32:05;;;;;;;;;;;4.50;99.90;;;;;;5052877;28;19992;-74
2021/12/19 09:34:33;;;;;;;;;;;4.50;99.90;;;;;;5052705;28;20270;-74
2021/12/19 09:37:00;;;;;;;;;;;4.50;99.90;;;;;;5052863;28;19904;-74
2021/12/19 09:39:26;;;;;;;;;;;4.40;99.90;;;;;;5052879;28;19912;-74
2021/12/19 09:41:56;;;;;;;;;;;4.50;99.90;;;;;;5052750;28;19905;-74
2021/12/19 09:44:21;;;;;;;;;;;4.50;99.90;;;;;;5051999;28;19966;-73
2021/12/19 09:46:48;;;;;;;;;;;4.50;99.90;;;;;;5052382;28;19917;-73
2021/12/19 09:49:15;;;;;;;;;;;4.50;99.90;;;;;;5052868;28;19908;-73
2021/12/19 09:51:41;;;;;;;;;;;4.60;99.90;;;;;;5052038;28;19905;-74
2021/12/19 09:54:07;;;;;;;;;;;4.60;99.90;;;;;;5052502;28;19905;-74
2021/12/19 09:56:34;;;;;;;;;;;4.60;99.90;;;;;;5051916;28;19947;-75
2021/12/19 09:59:00;;;;;;;;;;;4.70;99.90;;;;;;5052946;28;19912;-74
2021/12/19 10:01:26;;;;;;;;;;;4.70;99.90;;;;;;5052552;28;20051;-74
2021/12/19 10:03:52;;;;;;;;;;;4.70;99.90;;;;;;5051892;28;19947;-74
2021/12/19 10:06:17;;;;;;;;;;;4.70;99.90;;;;;;5052137;28;19913;-74
2021/12/19 10:08:44;;;;;;;;;;;4.80;99.90;;;;;;5052115;28;19908;-73
2021/12/19 10:11:30;;;;;;;;;;;4.80;99.90;;;;;;5051920;28;20381;-73
2021/12/19 10:13:56;;;;;;;;;;;4.80;99.90;;;;;;5052037;28;19967;-74
2021/12/19 10:16:24;;;;;;;;;;;4.90;99.90;;;;;;5052443;28;19998;-73
2021/12/19 10:18:53;;;;;;;;;;;4.90;99.90;;;;;;5051249;28;20583;-74
2021/12/19 10:21:19;;;;;;;;;;;5.00;99.90;;;;;;5052015;28;19905;-74
2021/12/19 10:23:45;;;;;;;;;;;5.00;99.90;;;;;;5050133;28;20381;-74
2021/12/19 10:26:11;;;;;;;;;;;5.10;99.90;;;;;;5051632;28;19913;-74
2021/12/19 10:28:48;;;;;;;;;;;5.10;99.90;;;;;;5051416;28;19912;-74
2021/12/19 10:31:14;;;;;;;;;;;5.20;99.90;;;;;;5052328;28;19905;-75
2021/12/19 10:33:40;;;;;;;;;;;5.30;99.90;;;;;;5060051;28;19912;-74
2021/12/19 10:36:06;;;;;;;;;;;5.30;99.90;;;;;;5065953;28;19939;-73
2021/12/19 10:38:34;;;;;;;;;;;5.40;99.90;;;;;;5053732;28;20030;-75
2021/12/19 10:41:02;;;;;;;;;;;5.50;99.90;;;;;;5051587;28;19912;-74
2021/12/19 10:43:30;;;;;;;;;;;5.60;99.90;;;;;;5051549;28;19944;-74
2021/12/19 10:45:59;;;;;;;;;;;5.70;99.90;;;;;;5051591;28;19916;-73
2021/12/19 10:48:25;;;;;;;;;;;5.80;99.90;;;;;;5051627;28;19910;-74
2021/12/19 10:50:59;;;;;;;;;;;5.90;99.90;;;;;;5050973;28;19987;-74
2021/12/19 10:53:32;;;;;;;;;;;6.10;99.90;;;;;;5051688;28;19947;-74
2021/12/19 10:55:59;;;;;;;;;;;6.20;99.90;;;;;;5051575;28;19912;-73
2021/12/19 10:58:26;;;;;;;;;;;6.30;99.90;;;;;;5051601;28;19911;-74
2021/12/19 11:01:04;;;;;;;;;;;6.50;99.90;;;;;;5052514;28;20386;-73
2021/12/19 11:03:39;;;;;;;;;;;6.60;99.90;;;;;;5055412;28;19935;-74
2021/12/19 11:06:25;;;;;;;;;;;6.90;99.90;;;;;;5054355;28;20275;-73
2021/12/19 11:08:52;;;;;;;;;;;7.00;99.90;;;;;;5053982;28;20607;-74
2021/12/19 11:11:32;;;;;;;;;;;7.10;99.90;;;;;;5055257;28;19908;-73
2021/12/19 11:13:58;;;;;;;;;;;7.20;99.90;;;;;;5054519;28;19940;-74
2021/12/19 11:16:23;;;;;;;;;;;7.20;99.90;;;;;;5070337;28;19944;-73
2021/12/19 11:18:50;;;;;;;;;;;7.40;99.90;;;;;;5054607;28;19955;-73
2021/12/19 11:21:17;;;;;;;;;;;7.50;99.90;;;;;;5055277;28;19909;-74
2021/12/19 11:23:43;;;;;;;;;;;7.60;99.90;;;;;;5054256;28;19904;-74
2021/12/19 11:26:09;;;;;;;;;;;7.60;99.90;;;;;;5054915;28;20387;-74
2021/12/19 11:28:36;;;;;;;;;;;7.60;99.90;;;;;;5053829;28;20303;-74
2021/12/19 11:31:01;;;;;;;;;;;7.70;99.90;;;;;;5054436;28;20252;-74
2021/12/19 11:33:46;;;;;;;;;;;7.80;99.90;;;;;;5054860;28;19911;-73
2021/12/19 11:36:11;;;;;;;;;;;7.80;99.90;;;;;;5054397;28;19905;-73
2021/12/19 11:38:37;;;;;;;;;;;7.90;99.90;;;;;;5053854;28;20050;-74
2021/12/19 11:41:09;;;;;;;;;;;7.90;99.90;;;;;;5054684;28;19912;-73
2021/12/19 11:43:36;;;;;;;;;;;7.90;99.90;;;;;;5054262;28;19915;-74
2021/12/19 11:46:09;;;;;;;;;;;8.00;99.90;;;;;;5054478;28;19913;-75
2021/12/19 11:48:35;;;;;;;;;;;8.00;99.90;;;;;;5054336;28;20366;-75
2021/12/19 11:51:08;;;;;;;;;;;8.00;99.90;;;;;;5054448;28;19987;-74
2021/12/19 11:53:35;;;;;;;;;;;8.00;99.90;;;;;;5052868;28;19905;-74
2021/12/19 11:56:09;;;;;;;;;;;8.00;99.90;;;;;;5054174;28;20355;-74
2021/12/19 11:58:49;;;;;;;;;;;8.00;99.90;;;;;;5054343;28;19962;-74
2021/12/19 12:01:20;;;;;;;;;;;8.10;99.90;;;;;;5054280;28;19912;-74
2021/12/19 12:03:47;;;;;;;;;;;8.10;99.90;;;;;;5053736;28;19909;-74
2021/12/19 12:06:24;;;;;;;;;;;8.10;99.90;;;;;;5052830;28;19919;-73
2021/12/19 12:09:08;;;;;;;;;;;8.10;99.90;;;;;;5053330;28;19905;-73
2021/12/19 12:11:35;;;;;;;;;;;8.20;99.90;;;;;;5053826;28;19911;-73
2021/12/19 12:14:19;;;;;;;;;;;8.20;99.90;;;;;;5053676;28;19912;-74
2021/12/19 12:16:52;;;;;;;;;;;8.20;99.90;;;;;;5053155;28;19999;-75
2021/12/19 12:19:34;;;;;;;;;;;8.20;99.90;;;;;;5054714;28;19911;-74
2021/12/19 12:25:07;;;;;;;;;;;8.20;99.90;;;;;;5055701;28;19995;-75
2021/12/19 12:27:39;;;;;;;;;;;8.20;99.90;;;;;;5053720;28;19920;-74
2021/12/19 12:30:08;;;;;;;;;;;8.20;99.90;;;;;;5053833;28;19909;-74
2021/12/19 12:32:34;;;;;;;;;;;8.10;99.90;;;;;;5053827;28;19931;-74
2021/12/19 12:34:59;;;;;;;;;;;8.20;99.90;;;;;;5053015;28;19908;-74
2021/12/19 12:37:27;;;;;;;;;;;8.20;99.90;;;;;;5053586;28;19947;-74
2021/12/19 12:40:42;;;;;;;;;;;8.20;99.90;;;;;;5052586;28;19905;-74
2021/12/19 12:43:10;;;;;;;;;;;8.20;99.90;;;;;;5050898;28;20305;-74
2021/12/19 12:45:49;;;;;;;;;;;8.20;99.90;;;;;;5050749;28;19928;-74
2021/12/19 12:48:28;;;;;;;;;;;8.10;99.90;;;;;;5052106;28;20019;-75
2021/12/19 12:50:54;;;;;;;;;;;8.10;99.90;;;;;;5052593;28;19951;-74
2021/12/19 12:53:31;;;;;;;;;;;8.10;99.90;;;;;;5053062;28;19905;-74
2021/12/19 12:56:01;;;;;;;;;;;8.10;99.90;;;;;;5052643;28;19991;-74
2021/12/19 12:58:26;;;;;;;;;;;8.10;99.90;;;;;;5053126;28;20000;-74
2021/12/19 13:01:11;;;;;;;;;;;8.10;99.90;;;;;;5052578;28;20390;-74
2021/12/19 13:03:36;;;;;;;;;;;8.00;99.90;;;;;;5053319;28;19944;-74
2021/12/19 13:06:02;;;;;;;;;;;8.10;99.90;;;;;;5052356;28;19947;-74
2021/12/19 13:08:28;;;;;;;;;;;8.00;99.90;;;;;;5053262;28;19959;-73
2021/12/19 13:10:54;;;;;;;;;;;8.00;99.90;;;;;;5052212;28;20348;-74
2021/12/19 13:13:24;;;;;;;;;;;8.00;99.90;;;;;;5053010;28;20245;-73
2021/12/19 13:15:50;;;;;;;;;;;8.00;99.90;;;;;;5052286;28;19909;-73
2021/12/19 13:18:15;;;;;;;;;;;8.00;99.90;;;;;;5052493;28;20337;-73
2021/12/19 13:20:41;;;;;;;;;;;8.00;99.90;;;;;;5052334;28;19912;-73
2021/12/19 13:23:07;;;;;;;;;;;8.00;99.90;;;;;;5051841;28;20050;-74
2021/12/19 13:25:39;;;;;;;;;;;8.00;99.90;;;;;;5053075;28;20378;-73
2021/12/19 13:28:06;;;;;;;;;;;7.90;99.90;;;;;;5052000;28;19913;-73
2021/12/19 13:30:32;;;;;;;;;;;7.90;99.90;;;;;;5052682;28;19982;-74
2021/12/19 13:32:57;;;;;;;;;;;8.00;99.90;;;;;;5051940;28;20079;-74
2021/12/19 13:35:40;;;;;;;;;;;7.90;99.90;;;;;;5052428;28;19905;-74
2021/12/19 13:38:10;;;;;;;;;;;7.90;99.90;;;;;;5052055;28;19971;-74
2021/12/19 13:40:38;;;;;;;;;;;7.90;99.90;;;;;;5052322;28;19928;-74
2021/12/19 13:43:06;;;;;;;;;;;7.90;99.90;;;;;;5051869;28;19911;-74
2021/12/19 13:45:33;;;;;;;;;;;7.90;99.90;;;;;;5052422;28;19909;-74
2021/12/19 13:48:04;;;;;;;;;;;7.80;99.90;;;;;;5051667;28;19912;-74
2021/12/19 13:50:31;;;;;;;;;;;7.90;99.90;;;;;;5052452;28;20007;-74
2021/12/19 13:52:57;;;;;;;;;;;7.80;99.90;;;;;;5051810;28;20331;-73
2021/12/19 13:55:23;;;;;;;;;;;7.80;99.90;;;;;;5052652;28;19974;-73
2021/12/19 13:58:01;;;;;;;;;;;7.80;99.90;;;;;;5051243;28;19905;-74
2021/12/19 14:00:31;;;;;;;;;;;7.80;99.90;;;;;;5052398;28;19915;-73
2021/12/19 14:02:57;;;;;;;;;;;7.80;99.90;;;;;;5051375;28;20343;-74
2021/12/19 14:05:37;;;;;;;;;;;7.70;99.90;;;;;;5052399;28;19904;-74
2021/12/19 14:08:21;;;;;;;;;;;7.70;99.90;;;;;;5051525;28;19908;-74
2021/12/19 14:11:19;;;;;;;;;;;7.70;99.90;;;;;;5051156;28;19978;-74
2021/12/19 14:14:32;;;;;;;;;;;7.70;99.90;;;;;;5050372;28;19904;-75
2021/12/19 14:17:00;;;;;;;;;;;7.70;99.90;;;;;;5050249;28;19908;-73
2021/12/19 14:19:27;;;;;;;;;;;7.70;99.90;;;;;;5051833;28;20379;-74
2021/12/19 14:22:01;;;;;;;;;;;7.70;99.90;;;;;;5051460;28;19904;-73
2021/12/19 14:24:37;;;;;;;;;;;7.60;99.90;;;;;;5050180;28;19911;-73
2021/12/19 14:27:25;;;;;;;;;;;7.60;99.90;;;;;;5049921;28;19962;-73
2021/12/19 14:30:05;;;;;;;;;;;7.60;99.90;;;;;;5051143;28;19987;-73
2021/12/19 14:32:32;;;;;;;;;;;7.60;99.90;;;;;;5051731;28;19905;-74
2021/12/19 14:35:13;;;;;;;;;;;7.60;99.90;;;;;;5052734;28;20347;-74
2021/12/19 14:37:43;;;;;;;;;;;7.60;99.90;;;;;;5055722;28;19904;-73
2021/12/19 14:40:19;;;;;;;;;;;7.60;99.90;;;;;;5054877;28;20049;-74
2021/12/19 14:42:46;;;;;;;;;;;7.60;99.90;;;;;;5055314;28;19989;-74
2021/12/19 14:45:18;;;;;;;;;;;7.60;99.90;;;;;;5054991;28;19905;-74
2021/12/19 14:47:45;;;;;;;;;;;7.70;99.90;;;;;;5055820;28;19969;-74
2021/12/19 14:50:12;;;;;;;;;;;7.60;99.90;;;;;;5055439;28;19905;-74
2021/12/19 14:52:38;;;;;;;;;;;7.60;99.90;;;;;;5054123;28;19905;-74
2021/12/19 14:55:08;;;;;;;;;;;7.60;99.90;;;;;;5055022;28;19905;-73
2021/12/19 14:57:33;;;;;;;;;;;7.50;99.90;;;;;;5055859;28;19912;-74
2021/12/19 14:59:59;;;;;;;;;;;7.50;99.90;;;;;;5054644;28;19906;-73
2021/12/19 15:02:25;;;;;;;;;;;7.50;99.90;;;;;;5055519;28;19909;-74
2021/12/19 15:04:50;;;;;;;;;;;7.50;99.90;;;;;;5054878;28;19905;-74
2021/12/19 15:07:21;;;;;;;;;;;7.50;99.90;;;;;;5055589;28;19912;-74
2021/12/19 15:09:47;;;;;;;;;;;7.50;99.90;;;;;;5054914;28;19917;-74
2021/12/19 15:12:13;;;;;;;;;;;7.50;99.90;;;;;;5055178;28;19905;-73
2021/12/19 15:14:38;;;;;;;;;;;7.50;99.90;;;;;;5055009;28;19904;-73
2021/12/19 15:17:04;;;;;;;;;;;7.50;99.90;;;;;;5054256;28;19905;-73
2021/12/19 15:19:29;;;;;;;;;;;7.50;99.90;;;;;;5055143;28;19908;-74
2021/12/19 15:21:55;;;;;;;;;;;7.40;99.90;;;;;;5054265;28;19935;-74
2021/12/19 15:24:21;;;;;;;;;;;7.40;99.90;;;;;;5055171;28;19915;-74
2021/12/19 15:26:46;;;;;;;;;;;7.40;99.90;;;;;;5055045;28;19955;-74
2021/12/19 15:29:12;;;;;;;;;;;7.40;99.90;;;;;;5054377;28;20321;-73
2021/12/19 15:31:38;;;;;;;;;;;7.30;99.90;;;;;;5054698;28;20347;-74
2021/12/19 15:34:04;;;;;;;;;;;7.30;99.90;;;;;;5053981;28;19905;-74
2021/12/19 15:36:29;;;;;;;;;;;7.40;99.90;;;;;;5054570;28;19955;-74